createdAt,value
2019-04-04T00:01:47.728Z,10.28
2019-04-04T00:04:17.316Z,10.13
2019-04-04T00:06:46.956Z,9.90
2019-04-04T00:09:16.853Z,9.71
2019-04-04T00:11:46.758Z,9.65
2019-04-04T00:14:16.440Z,9.55
2019-04-04T00:16:46.789Z,9.47
2019-04-04T00:19:17.633Z,9.41
2019-04-04T00:21:47.484Z,9.37
2019-04-04T00:24:17.210Z,9.32
2019-04-04T00:26:46.998Z,9.34
2019-04-04T00:29:17.306Z,9.35
2019-04-04T00:31:49.829Z,9.40
2019-04-04T00:34:20.223Z,9.46
2019-04-04T00:36:49.987Z,9.48
2019-04-04T00:39:19.698Z,9.54
2019-04-04T00:41:49.635Z,9.60
2019-04-04T00:44:21.037Z,9.59
2019-04-04T00:46:50.820Z,9.57
2019-04-04T00:49:20.569Z,9.54
2019-04-04T00:51:50.301Z,9.58
2019-04-04T00:54:20.115Z,9.53
2019-04-04T00:56:49.990Z,9.44
2019-04-04T00:59:22.630Z,9.38
2019-04-04T01:01:51.363Z,9.39
2019-04-04T01:04:21.194Z,9.50
2019-04-04T01:06:51.160Z,9.67
2019-04-04T01:09:21.040Z,9.79
2019-04-04T01:11:51.264Z,9.75
2019-04-04T01:14:22.907Z,9.67
2019-04-04T01:16:52.735Z,9.54
2019-04-04T01:19:22.492Z,9.53
2019-04-04T01:21:53.446Z,9.56
2019-04-04T01:24:23.709Z,9.57
2019-04-04T01:26:53.457Z,9.55
2019-04-04T01:29:23.207Z,9.49
2019-04-04T01:31:52.947Z,9.41
2019-04-04T01:37:58.225Z,9.33
2019-04-04T01:40:32.780Z,9.40
2019-04-04T01:43:00.978Z,9.42
2019-04-04T01:45:31.434Z,9.43
2019-04-04T01:48:01.116Z,9.39
2019-04-04T01:50:30.957Z,9.29
2019-04-04T01:53:00.710Z,9.23
2019-04-04T01:55:30.488Z,9.22
2019-04-04T01:58:00.202Z,9.20
2019-04-04T02:00:29.987Z,9.17
2019-04-04T02:03:03.345Z,9.13
2019-04-04T02:05:33.366Z,9.17
2019-04-04T02:08:04.390Z,9.15
2019-04-04T02:10:34.929Z,9.18
2019-04-04T02:13:05.814Z,9.19
2019-04-04T02:15:35.603Z,9.19
2019-04-04T02:18:05.386Z,9.18
2019-04-04T02:20:35.132Z,9.20
2019-04-04T02:23:05.339Z,9.18
2019-04-04T02:25:35.325Z,9.17
2019-04-04T02:28:06.917Z,9.19
2019-04-04T02:30:40.017Z,9.16
2019-04-04T02:33:14.051Z,9.11
2019-04-04T02:35:44.068Z,9.07
2019-04-04T02:38:13.847Z,9.07
2019-04-04T02:40:43.772Z,9.01
2019-04-04T02:43:13.685Z,8.90
2019-04-04T02:45:43.793Z,8.85
2019-04-04T02:48:13.589Z,8.80
2019-04-04T02:50:45.163Z,8.76
2019-04-04T02:53:19.227Z,8.76
2019-04-04T02:55:46.997Z,8.71
2019-04-04T02:58:18.514Z,8.57
2019-04-04T03:00:48.801Z,8.48
2019-04-04T03:03:18.680Z,8.45
2019-04-04T03:05:51.972Z,8.43
2019-04-04T03:08:20.357Z,8.42
2019-04-04T03:10:50.182Z,8.43
2019-04-04T03:13:20.169Z,8.44
2019-04-04T03:15:50.009Z,8.44
2019-04-04T03:18:19.717Z,8.44
2019-04-04T03:20:50.682Z,8.45
2019-04-04T03:23:20.785Z,8.44
2019-04-04T03:25:50.466Z,8.39
2019-04-04T03:28:20.195Z,8.35
2019-04-04T03:31:00.905Z,8.38
2019-04-04T03:33:29.213Z,8.42
2019-04-04T03:35:53.397Z,8.40
2019-04-04T03:38:23.122Z,8.32
2019-04-04T03:40:57.492Z,8.28
2019-04-04T03:43:24.602Z,8.23
2019-04-04T03:45:54.413Z,8.18
2019-04-04T03:48:25.515Z,8.16
2019-04-04T03:50:57.390Z,8.17
2019-04-04T03:53:26.966Z,8.19
2019-04-04T03:56:00.183Z,8.21
2019-04-04T03:58:28.507Z,8.21
2019-04-04T04:00:58.314Z,8.19
2019-04-04T04:03:29.071Z,8.19
2019-04-04T04:05:58.978Z,8.16
2019-04-04T04:08:29.065Z,8.20
2019-04-04T04:10:58.799Z,8.21
2019-04-04T04:13:28.595Z,8.27
2019-04-04T04:16:02.699Z,8.28
2019-04-04T04:18:29.818Z,8.34
2019-04-04T04:20:59.517Z,8.38
2019-04-04T04:23:29.278Z,8.39
2019-04-04T04:25:58.907Z,8.40
2019-04-04T04:28:28.780Z,8.37
2019-04-04T04:30:58.742Z,8.32
2019-04-04T04:33:29.943Z,8.38
2019-04-04T04:36:00.116Z,8.41
2019-04-04T04:38:30.208Z,8.39
2019-04-04T04:41:00.000Z,8.40
2019-04-04T04:43:33.444Z,8.38
2019-04-04T04:46:01.940Z,8.38
2019-04-04T04:48:32.027Z,8.37
2019-04-04T04:51:02.786Z,8.36
2019-04-04T04:53:33.468Z,8.31
2019-04-04T04:56:03.403Z,8.27
2019-04-04T04:58:33.096Z,8.24
2019-04-04T05:01:03.522Z,8.16
2019-04-04T05:03:33.314Z,8.12
2019-04-04T05:06:03.455Z,8.15
2019-04-04T05:08:33.277Z,8.19
2019-04-04T05:11:03.189Z,8.28
2019-04-04T05:13:33.000Z,8.38
2019-04-04T05:16:04.796Z,8.42
2019-04-04T05:18:34.198Z,8.41
2019-04-04T05:21:03.998Z,8.29
2019-04-04T05:23:33.801Z,8.28
2019-04-04T05:26:03.478Z,8.21
2019-04-04T05:28:33.250Z,8.18
2019-04-04T05:31:02.941Z,8.19
2019-04-04T05:33:32.751Z,8.23
2019-04-04T05:36:04.851Z,8.27
2019-04-04T05:38:33.898Z,8.25
2019-04-04T05:41:04.045Z,8.25
2019-04-04T05:43:35.279Z,8.23
2019-04-04T05:46:06.257Z,8.24
2019-04-04T05:48:35.949Z,8.32
2019-04-04T05:51:05.801Z,8.39
2019-04-04T05:53:36.056Z,8.33
2019-04-04T05:56:06.639Z,8.26
2019-04-04T05:58:36.487Z,8.28
2019-04-04T06:01:07.239Z,8.38
2019-04-04T06:03:36.969Z,8.45
2019-04-04T06:06:06.852Z,8.45
2019-04-04T06:08:38.794Z,8.48
2019-04-04T06:11:08.162Z,8.46
2019-04-04T06:13:38.026Z,8.46
2019-04-04T06:16:07.733Z,8.50
2019-04-04T06:18:37.592Z,8.55
2019-04-04T06:21:07.366Z,8.54
2019-04-04T06:23:37.210Z,8.56
2019-04-04T06:26:07.718Z,8.66
2019-04-04T06:28:37.485Z,8.76
2019-04-04T06:31:07.232Z,8.78
2019-04-04T06:33:36.920Z,8.93
2019-04-04T06:36:06.840Z,9.04
2019-04-04T06:38:36.562Z,9.09
2019-04-04T06:41:06.486Z,9.11
2019-04-04T06:43:37.197Z,9.02
2019-04-04T06:46:06.954Z,8.97
2019-04-04T06:48:38.644Z,8.93
2019-04-04T06:51:08.593Z,8.89
2019-04-04T06:53:38.299Z,8.81
2019-04-04T06:56:08.006Z,8.74
2019-04-04T06:58:40.036Z,8.75
2019-04-04T07:01:11.100Z,8.79
2019-04-04T07:03:40.902Z,8.77
2019-04-04T07:06:10.906Z,8.84
2019-04-04T07:08:41.084Z,8.96
2019-04-04T07:11:20.937Z,9.14
2019-04-04T07:13:43.027Z,9.38
2019-04-04T07:16:12.895Z,9.47
2019-04-04T07:18:43.000Z,9.50
2019-04-04T07:21:13.558Z,9.38
2019-04-04T07:23:43.437Z,9.15
2019-04-04T07:26:14.912Z,9.10
2019-04-04T07:28:44.711Z,9.25
2019-04-04T07:31:15.973Z,9.38
2019-04-04T07:33:45.970Z,9.59
2019-04-04T07:36:15.726Z,9.88
2019-04-04T07:38:45.549Z,10.09
2019-04-04T07:41:15.353Z,10.16
2019-04-04T07:43:45.030Z,10.18
2019-04-04T07:46:16.870Z,10.42
2019-04-04T07:48:46.476Z,10.60
2019-04-04T07:51:16.204Z,10.79
2019-04-04T07:53:46.021Z,10.80
2019-04-04T07:56:15.819Z,10.84
2019-04-04T07:58:45.488Z,10.85
2019-04-04T08:01:15.164Z,10.76
2019-04-04T08:03:44.869Z,10.60
2019-04-04T08:06:14.706Z,10.41
2019-04-04T08:08:44.482Z,10.27
2019-04-04T08:11:14.537Z,10.25
2019-04-04T08:13:44.306Z,10.26
2019-04-04T08:16:14.125Z,10.32
2019-04-04T08:18:43.888Z,10.37
2019-04-04T08:21:13.640Z,10.31
2019-04-04T08:23:43.375Z,10.17
2019-04-04T08:26:13.090Z,10.17
2019-04-04T08:28:42.820Z,10.21
2019-04-04T08:31:12.544Z,10.24
2019-04-04T08:33:42.284Z,10.22
2019-04-04T08:36:12.108Z,10.23
2019-04-04T08:38:41.937Z,10.24
2019-04-04T08:41:12.036Z,10.26
2019-04-04T08:43:41.795Z,10.23
2019-04-04T08:46:11.504Z,10.15
2019-04-04T08:48:41.263Z,10.02
2019-04-04T08:51:11.072Z,9.99
2019-04-04T08:53:40.837Z,10.07
2019-04-04T08:56:10.662Z,10.23
2019-04-04T08:58:40.354Z,10.35
2019-04-04T09:01:10.109Z,10.32
2019-04-04T09:03:39.780Z,10.24
2019-04-04T09:06:09.488Z,10.15
2019-04-04T09:08:39.270Z,10.23
2019-04-04T09:11:10.199Z,10.34
2019-04-04T09:13:39.952Z,10.46
2019-04-04T09:16:09.896Z,10.48
2019-04-04T09:18:40.700Z,10.50
2019-04-04T09:21:10.454Z,10.57
2019-04-04T09:23:40.168Z,10.70
2019-04-04T09:26:09.969Z,10.83
2019-04-04T09:28:40.118Z,10.95
2019-04-04T09:31:09.981Z,11.03
2019-04-04T09:33:39.686Z,11.08
2019-04-04T09:36:09.793Z,11.16
2019-04-04T09:38:39.559Z,11.15
2019-04-04T09:41:09.528Z,11.13
2019-04-04T09:43:39.413Z,11.06
2019-04-04T09:46:09.396Z,11.05
2019-04-04T09:48:39.162Z,11.11
2019-04-04T09:51:09.052Z,11.15
2019-04-04T09:53:52.414Z,11.15
2019-04-04T09:56:11.383Z,11.12
2019-04-04T09:58:41.077Z,11.05
2019-04-04T10:01:10.976Z,11.00
2019-04-04T10:03:40.893Z,11.02
2019-04-04T10:06:10.664Z,11.03
2019-04-04T10:08:40.616Z,11.00
2019-04-04T10:11:10.384Z,10.89
2019-04-04T10:13:40.053Z,10.76
2019-04-04T10:16:09.820Z,10.69
2019-04-04T10:18:39.525Z,10.78
2019-04-04T10:21:12.266Z,10.87
2019-04-04T10:23:40.954Z,11.02
2019-04-04T10:26:11.080Z,11.11
2019-04-04T10:28:40.976Z,11.25
2019-04-04T10:31:10.792Z,11.47
2019-04-04T10:33:42.204Z,11.70
2019-04-04T10:36:12.217Z,11.75
2019-04-04T10:38:41.996Z,11.87
2019-04-04T10:41:12.043Z,11.81
2019-04-04T10:43:41.976Z,11.74
2019-04-04T10:46:11.765Z,11.78
2019-04-04T10:48:41.540Z,11.98
2019-04-04T10:51:11.477Z,12.23
2019-04-04T10:53:41.234Z,12.43
2019-04-04T10:56:10.990Z,12.48
2019-04-04T10:58:40.684Z,12.60
2019-04-04T11:01:10.487Z,12.65
2019-04-04T11:03:40.186Z,12.70
2019-04-04T11:06:09.915Z,12.91
2019-04-04T11:08:39.613Z,13.13
2019-04-04T11:11:09.521Z,13.43
2019-04-04T11:13:39.292Z,13.75
2019-04-04T11:16:09.004Z,13.50
2019-04-04T11:18:38.689Z,13.24
2019-04-04T11:21:08.513Z,13.15
2019-04-04T11:23:38.285Z,13.05
2019-04-04T11:26:08.168Z,13.01
2019-04-04T11:28:37.849Z,13.31
2019-04-04T11:31:07.573Z,13.64
2019-04-04T11:33:37.274Z,14.59
2019-04-04T11:36:07.233Z,15.71
2019-04-04T11:38:36.954Z,16.99
2019-04-04T11:41:06.730Z,18.04
2019-04-04T11:43:36.438Z,17.77
2019-04-04T11:46:06.221Z,16.97
2019-04-04T11:48:36.063Z,17.08
2019-04-04T11:51:06.266Z,17.78
2019-04-04T11:53:36.073Z,18.58
2019-04-04T11:56:06.064Z,18.82
2019-04-04T11:58:36.367Z,18.39
2019-04-04T12:01:08.304Z,18.66
2019-04-04T12:03:38.015Z,19.13
2019-04-04T12:06:08.685Z,19.29
2019-04-04T12:08:38.366Z,18.59
2019-04-04T12:11:08.410Z,18.57
2019-04-04T12:13:38.162Z,18.53
2019-04-04T12:16:08.069Z,18.42
2019-04-04T12:18:37.878Z,18.45
2019-04-04T12:21:07.579Z,18.81
2019-04-04T12:23:37.293Z,19.33
2019-04-04T12:26:07.004Z,19.54
2019-04-04T12:28:36.707Z,19.41
2019-04-04T12:31:06.507Z,19.04
2019-04-04T12:33:36.252Z,19.04
2019-04-04T12:36:06.789Z,19.37
2019-04-04T12:38:36.471Z,19.73
2019-04-04T12:41:06.217Z,19.73
2019-04-04T12:43:36.009Z,19.59
2019-04-04T12:46:06.002Z,19.24
2019-04-04T12:48:35.680Z,19.38
2019-04-04T12:51:05.748Z,19.38
2019-04-04T12:53:35.536Z,19.43
2019-04-04T12:56:05.373Z,19.24
2019-04-04T12:58:35.073Z,18.75
2019-04-04T13:01:04.838Z,18.17
2019-04-04T13:03:34.533Z,17.96
2019-04-04T13:06:04.302Z,17.97
2019-04-04T13:08:34.107Z,18.11
2019-04-04T13:11:06.384Z,18.02
2019-04-04T13:13:38.207Z,17.73
2019-04-04T13:16:08.283Z,17.36
2019-04-04T13:18:38.023Z,16.96
2019-04-04T13:21:08.918Z,16.78
2019-04-04T13:23:38.753Z,16.30
2019-04-04T13:26:08.514Z,15.80
2019-04-04T13:28:38.284Z,15.54
2019-04-04T13:31:07.997Z,15.54
2019-04-04T13:33:37.758Z,15.54
2019-04-04T13:36:07.534Z,15.50
2019-04-04T13:38:37.418Z,15.65
2019-04-04T13:41:07.154Z,15.77
2019-04-04T13:43:36.880Z,15.77
2019-04-04T13:46:06.700Z,15.71
2019-04-04T13:48:37.515Z,15.77
2019-04-04T13:51:07.687Z,16.00
2019-04-04T13:53:37.430Z,16.13
2019-04-04T13:56:07.369Z,16.26
2019-04-04T13:58:37.152Z,16.32
2019-04-04T14:01:08.024Z,16.27
2019-04-04T14:03:37.780Z,16.27
2019-04-04T14:06:07.464Z,16.21
2019-04-04T14:08:39.400Z,16.20
2019-04-04T14:11:08.593Z,16.25
2019-04-04T14:13:38.284Z,16.19
2019-04-04T14:16:08.051Z,16.22
2019-04-04T14:18:39.933Z,16.19
2019-04-04T14:21:09.364Z,16.18
2019-04-04T14:23:39.131Z,16.07
2019-04-04T14:26:08.906Z,15.94
2019-04-04T14:28:38.637Z,15.76
2019-04-04T14:31:08.321Z,15.50
2019-04-04T14:33:38.138Z,15.40
2019-04-04T14:36:07.895Z,15.52
2019-04-04T14:38:37.718Z,15.56
2019-04-04T14:41:11.403Z,15.60
2019-04-04T14:43:40.125Z,15.62
2019-04-04T14:46:10.084Z,15.66
2019-04-04T14:48:42.147Z,15.80
2019-04-04T14:51:11.564Z,15.91
2019-04-04T14:53:41.346Z,16.03
2019-04-04T14:56:11.107Z,16.03
2019-04-04T14:58:40.823Z,15.98
2019-04-04T15:01:11.758Z,15.97
2019-04-04T15:03:42.326Z,16.04
2019-04-04T15:06:12.663Z,16.07
2019-04-04T15:08:42.428Z,16.16
2019-04-04T15:11:23.499Z,16.08
2019-04-04T15:13:43.612Z,15.97
2019-04-04T15:16:18.361Z,15.99
2019-04-04T15:18:48.107Z,16.04
2019-04-04T15:21:17.874Z,16.05
2019-04-04T15:23:47.782Z,16.04
2019-04-04T15:26:17.558Z,16.06
2019-04-04T15:28:47.262Z,15.97
2019-04-04T15:31:17.523Z,15.98
2019-04-04T15:33:50.256Z,15.92
2019-04-04T15:36:18.791Z,15.84
2019-04-04T15:38:48.491Z,15.79
2019-04-04T15:41:18.218Z,15.78
2019-04-04T15:43:48.061Z,15.79
2019-04-04T15:46:17.874Z,15.82
2019-04-04T15:48:47.596Z,15.76
2019-04-04T15:51:17.312Z,15.59
2019-04-04T15:53:47.064Z,15.40
2019-04-04T15:56:16.793Z,15.26
2019-04-04T15:58:46.522Z,15.23
2019-04-04T16:01:16.282Z,15.23
2019-04-04T16:03:46.009Z,15.34
2019-04-04T16:06:15.770Z,15.37
2019-04-04T16:08:45.515Z,15.37
2019-04-04T16:11:15.182Z,15.37
2019-04-04T16:13:44.940Z,15.26
2019-04-04T16:16:14.622Z,15.13
2019-04-04T16:18:44.433Z,15.02
2019-04-04T16:21:14.112Z,14.95
2019-04-04T16:23:44.298Z,14.91
2019-04-04T16:26:13.954Z,14.83
2019-04-04T16:28:43.811Z,14.78
2019-04-04T16:31:13.482Z,14.77
2019-04-04T16:33:43.158Z,14.77
2019-04-04T16:36:12.836Z,14.80
2019-04-04T16:38:42.531Z,14.85
2019-04-04T16:41:14.519Z,14.89
2019-04-04T16:43:43.912Z,14.92
2019-04-04T16:46:14.739Z,14.92
2019-04-04T16:48:44.615Z,14.91
2019-04-04T16:51:14.752Z,14.82
2019-04-04T16:53:44.567Z,14.65
2019-04-04T16:56:14.264Z,14.53
2019-04-04T16:58:44.421Z,14.44
2019-04-04T17:01:15.260Z,14.38
2019-04-04T17:03:45.080Z,14.32
2019-04-04T17:06:15.144Z,14.25
2019-04-04T17:08:44.885Z,14.11
2019-04-04T17:11:14.681Z,13.93
2019-04-04T17:13:44.377Z,13.76
2019-04-04T17:16:14.220Z,13.58
2019-04-04T17:18:43.987Z,13.45
2019-04-04T17:21:14.661Z,13.32
2019-04-04T17:23:45.461Z,13.21
2019-04-04T17:26:15.163Z,13.10
2019-04-04T17:28:45.127Z,13.00
2019-04-04T17:31:15.723Z,12.89
2019-04-04T17:33:47.000Z,12.78
2019-04-04T17:36:20.297Z,12.71
2019-04-04T17:38:48.405Z,12.61
2019-04-04T17:41:18.212Z,12.50
2019-04-04T17:43:48.331Z,12.42
2019-04-04T17:46:18.959Z,12.34
2019-04-04T17:48:48.822Z,12.23
2019-04-04T17:51:19.121Z,12.16
2019-04-04T17:53:52.060Z,12.08
2019-04-04T17:56:21.214Z,11.98
2019-04-04T17:58:51.027Z,11.90
2019-04-04T18:01:20.967Z,11.80
2019-04-04T18:03:50.727Z,11.70
2019-04-04T18:06:20.643Z,11.62
2019-04-04T18:08:51.104Z,11.57
2019-04-04T18:11:20.864Z,11.51
2019-04-04T18:13:51.834Z,11.45
2019-04-04T18:16:21.908Z,11.40
2019-04-04T18:18:51.912Z,11.35
2019-04-04T18:21:22.220Z,11.27
2019-04-04T18:23:52.635Z,11.19
2019-04-04T18:26:22.913Z,11.14
2019-04-04T18:28:52.608Z,11.11
2019-04-04T18:31:22.683Z,11.08
2019-04-04T18:33:52.717Z,11.03
2019-04-04T18:36:23.200Z,10.98
2019-04-04T18:38:53.108Z,10.94
2019-04-04T18:41:23.282Z,10.94
2019-04-04T18:43:53.267Z,10.91
2019-04-04T18:46:23.233Z,10.88
2019-04-04T18:48:53.153Z,10.80
2019-04-04T18:51:23.570Z,10.73
2019-04-04T18:53:54.044Z,10.71
2019-04-04T18:56:24.304Z,10.68
2019-04-04T18:58:54.288Z,10.64
2019-04-04T19:01:24.456Z,10.60
2019-04-04T19:03:54.299Z,10.58
2019-04-04T19:06:25.996Z,10.48
2019-04-04T19:08:55.755Z,10.42
2019-04-04T19:11:25.862Z,10.32
2019-04-04T19:13:55.724Z,10.29
2019-04-04T19:16:25.931Z,10.26
2019-04-04T19:18:55.944Z,10.23
2019-04-04T19:21:26.082Z,10.18
2019-04-04T19:23:56.088Z,10.18
2019-04-04T19:26:26.138Z,10.17
2019-04-04T19:28:56.042Z,10.12
2019-04-04T19:31:26.098Z,10.09
2019-04-04T19:33:57.122Z,10.08
2019-04-04T19:36:26.988Z,10.07
2019-04-04T19:38:57.833Z,10.05
2019-04-04T19:41:27.725Z,9.98
2019-04-04T19:44:03.463Z,9.89
2019-04-04T19:46:45.658Z,9.81
2019-04-04T19:49:16.816Z,9.78
2019-04-04T20:01:35.665Z,9.54
2019-04-04T20:04:06.167Z,9.65
2019-04-04T20:06:35.933Z,9.59
2019-04-04T20:09:07.333Z,9.54
2019-04-04T20:11:37.403Z,9.48
2019-04-04T20:14:07.488Z,9.47
2019-04-04T20:16:37.848Z,9.45
2019-04-04T20:19:07.801Z,9.44
2019-04-04T20:21:37.470Z,9.39
2019-04-04T20:24:07.340Z,9.34
2019-04-04T20:26:37.681Z,9.30
2019-04-04T20:29:07.432Z,9.24
2019-04-04T20:31:37.960Z,9.20
2019-04-04T20:34:07.889Z,9.17
2019-04-04T20:36:38.190Z,9.16
2019-04-04T20:39:09.321Z,9.12
2019-04-04T20:41:39.272Z,9.10
2019-04-04T20:44:09.054Z,9.09
2019-04-04T20:46:39.056Z,9.05
2019-04-04T20:49:08.791Z,9.07
2019-04-04T20:51:38.712Z,9.06
2019-04-04T20:54:08.489Z,9.04
2019-04-04T20:56:38.393Z,9.03
2019-04-04T20:59:08.245Z,9.03
2019-04-04T21:01:39.019Z,9.02
2019-04-04T21:04:08.777Z,9.00
2019-04-04T21:06:38.586Z,8.98
2019-04-04T21:09:08.999Z,8.97
2019-04-04T21:11:38.932Z,8.95
2019-04-04T21:14:08.975Z,8.95
2019-04-04T21:16:39.022Z,8.96
2019-04-04T21:19:09.836Z,8.96
2019-04-04T21:21:39.621Z,9.00
2019-04-04T21:24:09.433Z,8.97
2019-04-04T21:26:39.149Z,8.97
2019-04-04T21:29:08.885Z,8.91
2019-04-04T21:31:38.771Z,8.86
2019-04-04T21:34:08.654Z,8.82
2019-04-04T21:36:38.396Z,8.81
2019-04-04T21:39:08.891Z,8.79
2019-04-04T21:41:38.890Z,8.74
2019-04-04T21:44:09.464Z,8.70
2019-04-04T21:46:39.411Z,8.68
2019-04-04T21:49:09.318Z,8.64
2019-04-04T21:51:39.134Z,8.62
2019-04-04T21:54:09.024Z,8.50
2019-04-04T21:56:39.134Z,8.35
2019-04-04T21:59:09.064Z,8.20
2019-04-04T22:01:39.334Z,8.12
2019-04-04T22:04:09.247Z,8.09
2019-04-04T22:06:39.001Z,8.06
2019-04-04T22:09:11.693Z,8.04
2019-04-04T22:11:41.771Z,8.05
2019-04-04T22:14:21.149Z,8.07
2019-04-04T22:16:43.246Z,8.08
2019-04-04T22:19:13.185Z,8.05
2019-04-04T22:21:43.203Z,8.01
2019-04-04T22:24:12.943Z,7.98
2019-04-04T22:26:42.720Z,7.95
2019-04-04T22:29:12.693Z,7.90
2019-04-04T22:31:42.647Z,7.86
2019-04-04T22:34:12.565Z,7.84
2019-04-04T22:36:42.431Z,7.84
2019-04-04T22:39:12.332Z,7.84
2019-04-04T22:41:42.304Z,7.86
2019-04-04T22:44:12.181Z,7.86
2019-04-04T22:46:42.248Z,7.80
2019-04-04T22:49:12.237Z,7.76
2019-04-04T22:51:43.016Z,7.72
2019-04-04T22:54:12.906Z,7.66
2019-04-04T22:56:42.725Z,7.60
2019-04-04T22:59:12.714Z,7.58
2019-04-04T23:01:42.607Z,7.58
2019-04-04T23:04:12.436Z,7.56
2019-04-04T23:06:42.340Z,7.53
2019-04-04T23:09:12.141Z,7.52
2019-04-04T23:11:41.927Z,7.51
2019-04-04T23:14:11.761Z,7.48
2019-04-04T23:16:41.823Z,7.48
2019-04-04T23:19:11.548Z,7.43
2019-04-04T23:21:41.603Z,7.38
2019-04-04T23:24:11.490Z,7.39
2019-04-04T23:26:41.701Z,7.46
2019-04-04T23:29:11.439Z,7.57
2019-04-04T23:31:41.459Z,7.72
2019-04-04T23:34:11.268Z,7.84
2019-04-04T23:36:41.152Z,7.99
2019-04-04T23:39:10.981Z,8.10
2019-04-04T23:41:40.702Z,8.14
2019-04-04T23:44:10.505Z,8.13
2019-04-04T23:46:40.334Z,8.17
2019-04-04T23:49:10.059Z,8.25
2019-04-04T23:51:41.011Z,8.32
2019-04-04T23:54:10.883Z,8.43
2019-04-04T23:58:53.561Z,8.51
